Jerry W. Tichenor — WDB9187 — position and weather

sailwx.info

Track history (hours):
 
Tides and Currents Weather Stations Pressure Air Temp Water Temp Dewpoint Dewpoint Depression Visibility Wind Speed Wind Dir Waves Ship Positions

Jerry W. Tichenor

Owner: Blessey Enterprises, Inc., harahan, LA. More information available from US FCC via Universal Licensing System and Coast Guard Vessel Documentation Center.

Last reported at 2017-Sep-25 14:04 UTC. Time now 2017-Sep-25 15:26 UTC.
Position N 29°46' W 095°05'.

Length 92 m; draft 9.6 m.

Type: Towing. MMSI: 366971520.

Date/timePositionNaut miles runAvg speedWind from/ knotsBaromVisibWave heightAir tempDewpointWater temp
2017-Sep-25 14:04N 29°46' W 095°05'0 5.0
2017-Sep-25 13:59N 29°46' W 095°05'1 0.1
2017-Sep-25 02:03N 29°47' W 095°05'0 0.5
2017-Sep-25 01:47N 29°47' W 095°05'2 4.5
2017-Sep-25 01:18N 29°45' W 095°04'3 5.2
2017-Sep-25 00:48N 29°43' W 095°01'1 4.8
2017-Sep-25 00:30N 29°42' W 095°00'3 5.3
2017-Sep-24 23:57N 29°40' W 094°58'3 5.5
2017-Sep-24 23:29N 29°37' W 094°57'2 5.1
2017-Sep-24 23:00N 29°37' W 095°00'1 2.1
2017-Sep-24 22:30N 29°37' W 095°01'0 0.1
2017-Sep-24 22:00N 29°37' W 095°01'0 0.0
2017-Sep-24 21:30N 29°37' W 095°01'0 0.0
2017-Sep-24 21:00N 29°37' W 095°01'0 0.0
2017-Sep-24 20:30N 29°37' W 095°01'0 0.0
2017-Sep-24 20:00N 29°37' W 095°01'0 0.0
2017-Sep-24 19:30N 29°37' W 095°01'0 0.0
2017-Sep-24 19:00N 29°37' W 095°01'0 0.0
2017-Sep-24 18:30N 29°37' W 095°01'0 0.0
2017-Sep-24 18:00N 29°37' W 095°01'0 0.0
2017-Sep-24 17:30N 29°37' W 095°01'0 0.0
2017-Sep-24 17:00N 29°37' W 095°01'0 0.0
2017-Sep-24 16:30N 29°37' W 095°01'0 0.0
2017-Sep-24 16:00N 29°37' W 095°01'0 0.0
2017-Sep-24 15:30N 29°37' W 095°01'0 0.0
2017-Sep-24 15:00N 29°37' W 095°01'0 0.0
2017-Sep-24 14:30N 29°37' W 095°01'0 0.0
2017-Sep-24 14:00N 29°37' W 095°01'0 0.0
2017-Sep-24 13:30N 29°37' W 095°01'0 0.0
2017-Sep-24 13:00N 29°37' W 095°01'0 0.0
2017-Sep-24 12:30N 29°37' W 095°01'0 0.0
2017-Sep-24 12:00N 29°37' W 095°01'0 0.6
2017-Sep-24 11:30N 29°37' W 095°01'3 6.1
2017-Sep-24 11:00N 29°37' W 094°58'3 6.9
2017-Sep-24 10:30N 29°40' W 094°59'3 6.8
2017-Sep-24 10:00N 29°43' W 095°01'3 6.5
2017-Sep-24 09:30N 29°45' W 095°04'  
Track history (hours):
 
Tides and Currents Weather Stations Pressure Air Temp Water Temp Dewpoint Dewpoint Depression Visibility Wind Speed Wind Dir Waves Ship Positions

Jerry W. Tichenor

Owner: Blessey Enterprises, Inc., harahan, LA. More information available from US FCC via Universal Licensing System and Coast Guard Vessel Documentation Center.

Last reported at 2017-Sep-25 14:04 UTC. Time now 2017-Sep-25 15:26 UTC.
Position N 29°46' W 095°05'.

Length 92 m; draft 9.6 m.

Type: Towing. MMSI: 366971520.

Date/timePositionNaut miles runAvg speedWind from/ knotsBaromVisibWave heightAir tempDewpointWater temp
2017-Sep-25 14:04N 29°46' W 095°05'0 5.0
2017-Sep-25 13:59N 29°46' W 095°05'1 0.1
2017-Sep-25 02:03N 29°47' W 095°05'0 0.5
2017-Sep-25 01:47N 29°47' W 095°05'2 4.5
2017-Sep-25 01:18N 29°45' W 095°04'3 5.2
2017-Sep-25 00:48N 29°43' W 095°01'1 4.8
2017-Sep-25 00:30N 29°42' W 095°00'3 5.3
2017-Sep-24 23:57N 29°40' W 094°58'3 5.5
2017-Sep-24 23:29N 29°37' W 094°57'2 5.1
2017-Sep-24 23:00N 29°37' W 095°00'1 2.1
2017-Sep-24 22:30N 29°37' W 095°01'0 0.1
2017-Sep-24 22:00N 29°37' W 095°01'0 0.0
2017-Sep-24 21:30N 29°37' W 095°01'0 0.0
2017-Sep-24 21:00N 29°37' W 095°01'0 0.0
2017-Sep-24 20:30N 29°37' W 095°01'0 0.0
2017-Sep-24 20:00N 29°37' W 095°01'0 0.0
2017-Sep-24 19:30N 29°37' W 095°01'0 0.0
2017-Sep-24 19:00N 29°37' W 095°01'0 0.0
2017-Sep-24 18:30N 29°37' W 095°01'0 0.0
2017-Sep-24 18:00N 29°37' W 095°01'0 0.0
2017-Sep-24 17:30N 29°37' W 095°01'0 0.0
2017-Sep-24 17:00N 29°37' W 095°01'0 0.0
2017-Sep-24 16:30N 29°37' W 095°01'0 0.0
2017-Sep-24 16:00N 29°37' W 095°01'0 0.0
2017-Sep-24 15:30N 29°37' W 095°01'0 0.0
2017-Sep-24 15:00N 29°37' W 095°01'0 0.0
2017-Sep-24 14:30N 29°37' W 095°01'0 0.0
2017-Sep-24 14:00N 29°37' W 095°01'0 0.0
2017-Sep-24 13:30N 29°37' W 095°01'0 0.0
2017-Sep-24 13:00N 29°37' W 095°01'0 0.0
2017-Sep-24 12:30N 29°37' W 095°01'0 0.0
2017-Sep-24 12:00N 29°37' W 095°01'0 0.6
2017-Sep-24 11:30N 29°37' W 095°01'3 6.1
2017-Sep-24 11:00N 29°37' W 094°58'3 6.9
2017-Sep-24 10:30N 29°40' W 094°59'3 6.8
2017-Sep-24 10:00N 29°43' W 095°01'3 6.5
2017-Sep-24 09:30N 29°45' W 095°04'  

Dump ship's entire track history